createdAt,value
2019-03-22T00:01:12.575Z,26.00
2019-03-22T00:03:39.211Z,27.97
2019-03-22T00:06:05.798Z,29.80
2019-03-22T00:08:32.330Z,24.40
2019-03-22T00:10:58.925Z,26.07
2019-03-22T00:13:26.577Z,24.10
2019-03-22T00:15:53.326Z,23.33
2019-03-22T00:18:19.989Z,22.93
2019-03-22T00:20:46.592Z,23.77
2019-03-22T00:23:13.196Z,22.73
2019-03-22T00:25:39.888Z,21.73
2019-03-22T00:28:06.632Z,23.17
2019-03-22T00:30:33.269Z,24.73
2019-03-22T00:32:59.971Z,22.03
2019-03-22T00:35:26.521Z,22.93
2019-03-22T00:37:53.099Z,24.43
2019-03-22T00:40:19.728Z,23.23
2019-03-22T00:42:48.025Z,20.60
2019-03-22T00:45:14.942Z,23.20
2019-03-22T00:47:41.463Z,22.00
2019-03-22T00:50:09.910Z,23.63
2019-03-22T00:52:36.483Z,22.40
2019-03-22T00:55:03.909Z,21.57
2019-03-22T00:57:30.589Z,22.80
2019-03-22T00:59:57.222Z,23.87
2019-03-22T01:02:23.823Z,21.20
2019-03-22T01:04:50.520Z,21.70
2019-03-22T01:07:17.150Z,20.30
2019-03-22T01:09:43.724Z,20.40
2019-03-22T01:12:10.473Z,22.97
2019-03-22T01:14:37.448Z,21.13
2019-03-22T01:17:04.088Z,20.90
2019-03-22T01:19:30.763Z,21.33
2019-03-22T01:21:57.386Z,24.83
2019-03-22T01:24:24.069Z,20.80
2019-03-22T01:26:50.640Z,22.07
2019-03-22T01:29:17.187Z,21.97
2019-03-22T01:31:43.758Z,21.60
2019-03-22T01:34:10.209Z,21.00
2019-03-22T01:36:36.797Z,19.60
2019-03-22T01:39:05.332Z,21.03
2019-03-22T01:41:31.926Z,22.30
2019-03-22T01:43:58.457Z,23.73
2019-03-22T01:46:25.037Z,20.40
2019-03-22T01:48:51.574Z,21.70
2019-03-22T01:51:18.144Z,20.70
2019-03-22T01:53:44.681Z,19.53
2019-03-22T01:56:11.258Z,22.83
2019-03-22T01:58:37.897Z,23.93
2019-03-22T02:01:05.521Z,24.60
2019-03-22T02:03:32.153Z,21.53
2019-03-22T02:05:59.642Z,24.87
2019-03-22T02:08:26.169Z,23.87
2019-03-22T02:10:52.747Z,21.03
2019-03-22T02:13:20.814Z,24.23
2019-03-22T02:15:47.549Z,23.83
2019-03-22T02:18:14.889Z,22.70
2019-03-22T02:20:41.553Z,23.00
2019-03-22T02:23:08.494Z,25.37
2019-03-22T02:25:35.059Z,26.10
2019-03-22T02:28:04.366Z,26.23
2019-03-22T02:30:30.003Z,25.93
2019-03-22T02:32:56.537Z,24.17
2019-03-22T02:35:29.083Z,25.70
2019-03-22T02:37:51.456Z,22.53
2019-03-22T02:40:18.233Z,22.77
2019-03-22T02:42:44.855Z,26.83
2019-03-22T02:45:13.943Z,22.90
2019-03-22T02:47:40.560Z,24.33
2019-03-22T02:50:17.747Z,21.90
2019-03-22T02:52:39.639Z,25.17
2019-03-22T02:55:07.209Z,25.07
2019-03-22T02:57:34.858Z,25.80
2019-03-22T03:00:02.883Z,23.50
2019-03-22T03:02:29.490Z,21.13
2019-03-22T03:04:57.774Z,24.30
2019-03-22T03:07:24.434Z,28.17
2019-03-22T03:09:50.970Z,26.10
2019-03-22T03:12:17.556Z,29.10
2019-03-22T03:14:44.175Z,30.30
2019-03-22T03:17:10.750Z,27.70
2019-03-22T03:19:37.296Z,26.00
2019-03-22T03:22:03.971Z,29.93
2019-03-22T03:24:30.501Z,32.53
2019-03-22T03:26:57.068Z,30.07
2019-03-22T03:29:23.616Z,33.30
2019-03-22T03:31:50.178Z,30.97
2019-03-22T03:34:16.709Z,32.30
2019-03-22T03:36:43.341Z,29.80
2019-03-22T03:39:09.909Z,28.00
2019-03-22T03:41:36.686Z,28.87
2019-03-22T03:44:03.813Z,34.97
2019-03-22T03:46:30.580Z,28.13
2019-03-22T03:48:57.310Z,28.67
2019-03-22T03:51:23.989Z,29.27
2019-03-22T03:53:50.639Z,27.90
2019-03-22T03:56:17.221Z,28.20
2019-03-22T03:58:52.095Z,29.63
2019-03-22T04:01:12.153Z,31.00
2019-03-22T04:03:38.995Z,32.00
2019-03-22T04:06:05.573Z,29.90
2019-03-22T04:08:32.101Z,31.37
2019-03-22T04:10:58.679Z,31.50
2019-03-22T04:13:25.304Z,33.20
2019-03-22T04:15:51.965Z,34.50
2019-03-22T04:18:18.600Z,33.50
2019-03-22T04:20:45.241Z,32.80
2019-03-22T04:23:11.922Z,32.00
2019-03-22T04:25:38.466Z,32.33
2019-03-22T04:28:05.033Z,32.57
2019-03-22T04:30:31.679Z,29.13
2019-03-22T04:32:58.254Z,29.87
2019-03-22T04:35:24.814Z,29.60
2019-03-22T04:37:51.485Z,31.50
2019-03-22T04:40:25.870Z,30.40
2019-03-22T04:42:52.744Z,30.70
2019-03-22T04:45:19.784Z,32.33
2019-03-22T04:47:49.158Z,27.00
2019-03-22T04:50:16.206Z,30.43
2019-03-22T04:52:43.177Z,28.20
2019-03-22T04:55:10.616Z,31.87
2019-03-22T04:57:37.541Z,31.13
2019-03-22T05:00:07.922Z,34.00
2019-03-22T05:02:35.829Z,34.53
2019-03-22T05:05:03.677Z,30.40
2019-03-22T05:07:30.649Z,29.60
2019-03-22T05:09:57.905Z,28.30
2019-03-22T05:12:25.273Z,28.47
2019-03-22T05:14:52.923Z,27.53
2019-03-22T05:17:20.411Z,29.23
2019-03-22T05:19:50.824Z,27.83
2019-03-22T05:22:19.535Z,28.77
2019-03-22T05:24:46.790Z,26.30
2019-03-22T05:27:14.369Z,27.63
2019-03-22T05:29:45.913Z,26.00
2019-03-22T05:32:13.985Z,27.60
2019-03-22T05:34:42.227Z,31.23
2019-03-22T05:37:08.800Z,31.10
2019-03-22T05:39:35.436Z,27.47
2019-03-22T05:42:02.223Z,30.57
2019-03-22T05:44:28.758Z,28.63
2019-03-22T05:46:55.646Z,29.40
2019-03-22T05:49:22.279Z,30.70
2019-03-22T05:51:49.010Z,31.37
2019-03-22T05:54:15.690Z,29.00
2019-03-22T05:56:42.242Z,30.10
2019-03-22T05:59:08.801Z,31.43
2019-03-22T06:01:35.373Z,27.97
2019-03-22T06:04:02.086Z,29.47
2019-03-22T06:06:28.619Z,27.03
2019-03-22T06:08:55.203Z,26.47
2019-03-22T06:11:21.749Z,26.17
2019-03-22T06:13:48.320Z,29.53
2019-03-22T06:16:14.887Z,25.80
2019-03-22T06:18:41.421Z,24.50
2019-03-22T06:21:07.956Z,25.30
2019-03-22T06:23:34.630Z,23.20
2019-03-22T06:26:01.177Z,26.83
2019-03-22T06:28:27.759Z,29.10
2019-03-22T06:30:54.304Z,24.90
2019-03-22T06:33:20.871Z,27.10
2019-03-22T06:35:47.416Z,22.83
2019-03-22T06:38:13.992Z,24.17
2019-03-22T06:40:40.542Z,28.80
2019-03-22T06:43:07.113Z,24.53
2019-03-22T06:45:33.669Z,24.53
2019-03-22T06:48:00.264Z,25.33
2019-03-22T06:50:26.795Z,27.53
2019-03-22T06:52:53.468Z,25.17
2019-03-22T06:55:20.003Z,22.50
2019-03-22T06:57:46.482Z,22.20
2019-03-22T07:00:13.132Z,23.67
2019-03-22T07:02:39.738Z,23.17
2019-03-22T07:05:06.715Z,21.63
2019-03-22T07:07:33.461Z,21.30
2019-03-22T07:10:01.230Z,16.33
2019-03-22T07:12:28.078Z,16.60
2019-03-22T07:14:54.758Z,18.40
2019-03-22T07:17:22.197Z,16.80
2019-03-22T07:19:48.872Z,20.70
2019-03-22T07:22:15.611Z,15.53
2019-03-22T07:24:42.265Z,16.20
2019-03-22T07:27:08.815Z,15.83
2019-03-22T07:29:35.489Z,17.17
2019-03-22T07:32:02.016Z,17.67
2019-03-22T07:34:28.702Z,17.37
2019-03-22T07:36:55.465Z,17.57
2019-03-22T07:39:23.719Z,16.23
2019-03-22T07:41:50.333Z,17.03
2019-03-22T07:44:16.844Z,18.27
2019-03-22T07:46:43.388Z,15.77
2019-03-22T07:49:09.965Z,17.27
2019-03-22T07:51:37.216Z,19.10
2019-03-22T07:54:04.000Z,19.33
2019-03-22T07:56:30.624Z,20.13
2019-03-22T07:58:57.205Z,18.13
2019-03-22T08:01:23.790Z,15.53
2019-03-22T08:03:50.359Z,17.33
2019-03-22T08:06:16.898Z,18.60
2019-03-22T08:08:43.465Z,15.20
2019-03-22T08:11:10.016Z,14.93
2019-03-22T08:13:36.468Z,14.33
2019-03-22T08:16:03.142Z,16.80
2019-03-22T08:18:29.672Z,17.20
2019-03-22T08:20:56.480Z,19.30
2019-03-22T08:23:23.038Z,16.90
2019-03-22T08:25:49.595Z,21.90
2019-03-22T08:28:16.146Z,22.60
2019-03-22T08:30:43.479Z,22.10
2019-03-22T08:33:10.160Z,24.60
2019-03-22T08:35:36.727Z,25.07
2019-03-22T08:38:03.375Z,26.10
2019-03-22T08:40:30.067Z,24.37
2019-03-22T08:42:56.626Z,24.03
2019-03-22T08:45:23.192Z,23.07
2019-03-22T08:47:49.727Z,24.23
2019-03-22T08:50:16.425Z,21.80
2019-03-22T08:52:42.958Z,21.50
2019-03-22T08:55:09.744Z,22.40
2019-03-22T08:57:36.469Z,24.23
2019-03-22T09:00:06.522Z,25.43
2019-03-22T09:02:33.128Z,22.37
2019-03-22T09:04:59.812Z,22.00
2019-03-22T09:07:26.501Z,21.73
2019-03-22T09:09:53.040Z,23.50
2019-03-22T09:12:19.833Z,22.40
2019-03-22T09:14:46.494Z,26.50
2019-03-22T09:17:13.159Z,25.00
2019-03-22T09:19:40.122Z,26.20
2019-03-22T09:22:06.614Z,26.77
2019-03-22T09:24:39.159Z,25.60
2019-03-22T09:27:01.704Z,27.73
2019-03-22T09:29:28.319Z,28.90
2019-03-22T09:31:54.989Z,30.93
2019-03-22T09:34:33.153Z,31.50
2019-03-22T09:36:51.108Z,31.00
2019-03-22T09:39:17.804Z,31.67
2019-03-22T09:41:44.486Z,32.60
2019-03-22T09:44:10.984Z,31.60
2019-03-22T09:46:37.547Z,30.37
2019-03-22T09:49:04.220Z,29.30
2019-03-22T09:51:30.907Z,34.47
2019-03-22T09:53:57.561Z,31.03
2019-03-22T09:56:24.209Z,31.93
2019-03-22T09:58:50.902Z,32.40
2019-03-22T10:01:23.515Z,29.73
2019-03-22T10:03:45.889Z,30.20
2019-03-22T10:06:12.514Z,30.13
2019-03-22T10:08:39.137Z,32.30
2019-03-22T10:11:05.794Z,33.90
2019-03-22T10:13:32.375Z,33.20
2019-03-22T10:15:58.979Z,31.13
2019-03-22T10:18:25.588Z,30.20
2019-03-22T10:20:52.171Z,31.13
2019-03-22T10:23:18.919Z,26.90
2019-03-22T10:25:45.620Z,29.13
2019-03-22T10:28:13.543Z,27.90
2019-03-22T10:30:40.188Z,28.67
2019-03-22T10:33:06.661Z,28.30
2019-03-22T10:35:33.223Z,27.17
2019-03-22T10:38:01.034Z,27.30
2019-03-22T10:40:27.985Z,29.47
2019-03-22T10:42:54.641Z,32.20
2019-03-22T10:45:22.416Z,30.67
2019-03-22T10:47:49.051Z,29.67
2019-03-22T10:50:15.654Z,31.90
2019-03-22T10:52:42.316Z,30.43
2019-03-22T10:55:28.538Z,31.00
2019-03-22T10:57:40.153Z,31.60
2019-03-22T11:00:09.979Z,32.90
2019-03-22T11:02:36.737Z,29.57
2019-03-22T11:05:05.270Z,30.17
2019-03-22T11:07:31.829Z,31.50
2019-03-22T11:09:58.512Z,30.53
2019-03-22T11:12:25.404Z,31.23
2019-03-22T11:14:52.089Z,34.90
2019-03-22T11:17:18.990Z,33.90
2019-03-22T11:19:45.523Z,36.40
2019-03-22T11:22:12.186Z,34.20
2019-03-22T11:24:39.314Z,36.20
2019-03-22T11:27:06.928Z,33.70
2019-03-22T11:29:33.623Z,36.57
2019-03-22T11:32:00.302Z,34.97
2019-03-22T11:34:26.834Z,34.67
2019-03-22T11:36:53.421Z,36.33
2019-03-22T11:39:20.050Z,38.37
2019-03-22T11:41:46.741Z,42.93
2019-03-22T11:44:13.335Z,40.17
2019-03-22T11:46:39.870Z,41.07
2019-03-22T11:49:06.657Z,40.20
2019-03-22T11:51:33.192Z,44.30
2019-03-22T11:53:59.783Z,40.73
2019-03-22T11:56:27.324Z,46.93
2019-03-22T11:58:54.016Z,46.30
2019-03-22T12:01:22.424Z,47.13
2019-03-22T12:03:49.569Z,48.70
2019-03-22T12:06:16.361Z,51.50
2019-03-22T12:08:43.500Z,44.47
2019-03-22T12:11:10.272Z,44.73
2019-03-22T12:13:36.718Z,45.47
2019-03-22T12:16:03.564Z,45.83
2019-03-22T12:18:30.113Z,45.27
2019-03-22T12:20:56.726Z,45.17
2019-03-22T12:23:23.371Z,45.17
2019-03-22T12:25:50.245Z,44.40
2019-03-22T12:28:16.948Z,40.57
2019-03-22T12:30:43.600Z,43.10
2019-03-22T12:33:10.141Z,44.10
2019-03-22T12:35:36.783Z,44.33
2019-03-22T12:38:03.438Z,42.13
2019-03-22T12:40:30.323Z,47.70
2019-03-22T12:42:57.129Z,44.70
2019-03-22T12:45:27.223Z,44.50
2019-03-22T12:47:54.466Z,45.57
2019-03-22T12:50:21.774Z,43.97
2019-03-22T12:52:48.411Z,45.63
2019-03-22T12:55:15.696Z,43.97
2019-03-22T12:57:42.445Z,40.63
2019-03-22T13:00:23.244Z,41.33
2019-03-22T13:02:50.436Z,40.67
2019-03-22T13:05:17.986Z,42.60
2019-03-22T13:07:44.726Z,42.33
2019-03-22T13:10:21.062Z,41.80
2019-03-22T13:12:47.739Z,41.17
2019-03-22T13:15:14.607Z,39.20
2019-03-22T13:17:41.148Z,38.33
2019-03-22T13:20:09.830Z,38.40
2019-03-22T13:22:36.757Z,42.00
2019-03-22T13:25:06.252Z,37.60
2019-03-22T13:27:33.036Z,39.33
2019-03-22T13:29:59.588Z,38.20
2019-03-22T13:32:26.170Z,38.33
2019-03-22T13:34:52.726Z,37.57
2019-03-22T13:37:19.330Z,38.10
2019-03-22T13:39:45.967Z,36.60
2019-03-22T13:42:12.654Z,34.37
2019-03-22T13:44:39.198Z,34.17
2019-03-22T13:47:05.789Z,30.37
2019-03-22T13:49:32.464Z,32.97
2019-03-22T13:51:59.057Z,34.47
2019-03-22T13:54:25.580Z,33.23
2019-03-22T13:56:52.229Z,33.70
2019-03-22T13:59:18.925Z,32.90
2019-03-22T14:01:45.457Z,30.87
2019-03-22T14:04:12.256Z,32.83
2019-03-22T14:06:38.787Z,34.47
2019-03-22T14:09:06.890Z,31.70
2019-03-22T14:11:33.422Z,31.57
2019-03-22T14:14:00.006Z,34.07
2019-03-22T14:16:26.562Z,32.33
2019-03-22T14:18:53.141Z,33.77
2019-03-22T14:21:20.562Z,33.20
2019-03-22T14:23:50.303Z,33.97
2019-03-22T14:26:16.902Z,32.57
2019-03-22T14:28:43.591Z,32.90
2019-03-22T14:31:10.773Z,32.50
2019-03-22T14:33:37.357Z,34.87
2019-03-22T14:36:04.069Z,31.23
2019-03-22T14:38:30.809Z,35.13
2019-03-22T14:40:57.583Z,31.83
2019-03-22T14:43:24.277Z,31.83
2019-03-22T14:45:51.574Z,31.30
2019-03-22T14:48:18.223Z,30.93
2019-03-22T14:50:44.820Z,31.50
2019-03-22T14:53:12.461Z,32.00
2019-03-22T14:55:40.710Z,30.30
2019-03-22T14:58:07.293Z,32.17
2019-03-22T15:00:33.917Z,33.23
2019-03-22T15:03:00.603Z,33.37
2019-03-22T15:05:27.151Z,32.20
2019-03-22T15:07:53.741Z,32.07
2019-03-22T15:10:20.425Z,33.37
2019-03-22T15:12:47.168Z,32.47
2019-03-22T15:15:18.785Z,30.30
2019-03-22T15:17:47.237Z,32.50
2019-03-22T15:20:15.839Z,30.20
2019-03-22T15:22:50.421Z,30.70
2019-03-22T15:25:27.693Z,29.00
2019-03-22T15:27:56.182Z,28.80
2019-03-22T15:30:30.580Z,29.77
2019-03-22T15:33:06.578Z,30.50
2019-03-22T15:35:52.081Z,29.07
2019-03-22T15:38:24.712Z,30.00
2019-03-22T15:40:51.337Z,30.00
2019-03-22T15:43:17.922Z,29.57
2019-03-22T15:45:44.665Z,29.90
2019-03-22T15:48:11.361Z,29.43
2019-03-22T15:50:37.884Z,29.50
2019-03-22T15:53:04.578Z,28.93
2019-03-22T15:55:31.160Z,27.27
2019-03-22T15:57:57.801Z,28.83
2019-03-22T16:00:24.640Z,29.57
2019-03-22T16:02:51.249Z,30.23
2019-03-22T16:05:18.134Z,31.37
2019-03-22T16:07:44.765Z,29.27
2019-03-22T16:10:11.809Z,28.80
2019-03-22T16:12:38.501Z,28.77
2019-03-22T16:15:08.852Z,29.93
2019-03-22T16:17:35.669Z,30.03
2019-03-22T16:20:06.757Z,30.40
2019-03-22T16:22:34.540Z,32.50
2019-03-22T16:25:01.242Z,29.27
2019-03-22T16:27:28.853Z,29.37
2019-03-22T16:29:55.501Z,31.20
2019-03-22T16:32:22.189Z,31.23
2019-03-22T16:34:48.736Z,32.00
2019-03-22T16:37:15.343Z,31.70
2019-03-22T16:39:41.968Z,33.20
2019-03-22T16:42:08.662Z,30.80
2019-03-22T16:44:35.237Z,31.53
2019-03-22T16:47:01.921Z,32.30
2019-03-22T16:49:28.464Z,31.33
2019-03-22T16:51:55.057Z,34.30
2019-03-22T16:54:21.714Z,33.40
2019-03-22T16:56:48.261Z,34.40
2019-03-22T16:59:14.856Z,33.90
2019-03-22T17:01:42.227Z,34.50
2019-03-22T17:04:08.976Z,31.90
2019-03-22T17:06:35.748Z,34.30
2019-03-22T17:09:04.845Z,33.53
2019-03-22T17:11:31.486Z,34.70
2019-03-22T17:13:58.064Z,37.03
2019-03-22T17:16:24.706Z,34.10
2019-03-22T17:18:51.584Z,32.40
2019-03-22T17:21:18.225Z,33.07
2019-03-22T17:23:44.927Z,34.83
2019-03-22T17:26:11.654Z,38.00
2019-03-22T17:28:38.356Z,34.77
2019-03-22T17:31:05.090Z,34.33
2019-03-22T17:33:31.629Z,35.57
2019-03-22T17:35:58.168Z,36.33
2019-03-22T17:38:24.752Z,33.37
2019-03-22T17:40:51.437Z,35.23
2019-03-22T17:43:18.237Z,34.97
2019-03-22T17:45:46.531Z,34.27
2019-03-22T17:48:14.172Z,36.50
2019-03-22T17:50:40.868Z,38.53
2019-03-22T17:53:09.152Z,34.27
2019-03-22T17:55:35.847Z,34.40
2019-03-22T17:58:02.589Z,37.37
2019-03-22T18:00:29.169Z,36.37
2019-03-22T18:02:56.204Z,35.40
2019-03-22T18:05:22.843Z,36.23
2019-03-22T18:07:49.344Z,34.30
2019-03-22T18:10:15.936Z,34.87
2019-03-22T18:12:42.584Z,36.83
2019-03-22T18:15:11.184Z,34.50
2019-03-22T18:17:37.821Z,37.57
2019-03-22T18:20:12.325Z,37.67
2019-03-22T18:22:39.059Z,35.07
2019-03-22T18:25:07.873Z,38.53
2019-03-22T18:27:34.644Z,40.93
2019-03-22T18:30:12.217Z,36.57
2019-03-22T18:32:38.812Z,39.47
2019-03-22T18:35:06.223Z,40.03
2019-03-22T18:37:32.962Z,40.33
2019-03-22T18:40:00.964Z,39.20
2019-03-22T18:42:28.506Z,36.60
2019-03-22T18:44:55.301Z,35.93
2019-03-22T18:47:22.081Z,41.93
2019-03-22T18:49:48.768Z,38.17
2019-03-22T18:52:15.466Z,39.00
2019-03-22T18:54:42.001Z,40.20
2019-03-22T18:57:08.680Z,38.50
2019-03-22T18:59:35.375Z,36.13
2019-03-22T19:02:01.956Z,40.43
2019-03-22T19:04:28.640Z,38.97
2019-03-22T19:06:55.225Z,40.87
2019-03-22T19:09:21.782Z,38.27
2019-03-22T19:11:48.469Z,40.37
2019-03-22T19:14:15.045Z,42.20
2019-03-22T19:16:41.741Z,38.20
2019-03-22T19:19:08.448Z,38.97
2019-03-22T19:21:35.392Z,38.43
2019-03-22T19:24:02.241Z,40.73
2019-03-22T19:26:30.591Z,38.70
2019-03-22T19:28:57.300Z,40.87
2019-03-22T19:31:24.177Z,35.70
2019-03-22T19:33:51.879Z,38.80
2019-03-22T19:36:19.481Z,37.37
2019-03-22T19:38:46.205Z,49.47
2019-03-22T19:41:12.741Z,40.80
2019-03-22T19:43:39.334Z,39.53
2019-03-22T19:46:05.901Z,41.83
2019-03-22T19:48:32.610Z,40.73
2019-03-22T19:50:59.290Z,40.87
2019-03-22T19:53:26.406Z,43.40
2019-03-22T19:55:53.987Z,40.17
2019-03-22T19:58:21.341Z,42.77
2019-03-22T20:00:48.617Z,42.50
2019-03-22T20:03:15.341Z,42.87
2019-03-22T20:05:42.607Z,42.33
2019-03-22T20:08:11.974Z,45.87
2019-03-22T20:10:38.686Z,46.17
2019-03-22T20:13:05.476Z,45.20
2019-03-22T20:15:32.022Z,47.10
2019-03-22T20:17:58.712Z,47.20
2019-03-22T20:20:25.295Z,46.90
2019-03-22T20:22:52.088Z,46.10
2019-03-22T20:25:18.706Z,48.50
2019-03-22T20:27:45.368Z,49.70
2019-03-22T20:30:14.836Z,49.10
2019-03-22T20:32:41.410Z,51.33
2019-03-22T20:35:16.448Z,48.60
2019-03-22T20:37:38.926Z,52.70
2019-03-22T20:40:10.412Z,54.10
2019-03-22T20:42:36.999Z,51.53
2019-03-22T20:45:06.093Z,52.20
2019-03-22T20:47:32.876Z,53.07
2019-03-22T20:49:59.466Z,54.33
2019-03-22T20:52:25.993Z,54.20
2019-03-22T20:54:52.613Z,55.50
2019-03-22T20:57:19.270Z,59.70
2019-03-22T20:59:46.416Z,63.03
2019-03-22T21:02:13.032Z,56.97
2019-03-22T21:04:40.600Z,55.47
2019-03-22T21:07:07.349Z,57.10
2019-03-22T21:09:34.235Z,62.23
2019-03-22T21:12:03.803Z,63.50
2019-03-22T21:14:30.885Z,56.83
2019-03-22T21:16:57.783Z,61.97
2019-03-22T21:19:24.839Z,58.83
2019-03-22T21:21:51.561Z,60.13
2019-03-22T21:24:19.642Z,63.17
2019-03-22T21:26:46.349Z,60.00
2019-03-22T21:29:12.906Z,64.37
2019-03-22T21:31:39.540Z,64.40
2019-03-22T21:34:06.277Z,59.50
2019-03-22T21:36:33.050Z,62.50
2019-03-22T21:38:59.779Z,62.57
2019-03-22T21:41:26.333Z,68.83
2019-03-22T21:43:52.959Z,67.13
2019-03-22T21:46:19.738Z,72.50
2019-03-22T21:48:46.464Z,68.10
2019-03-22T21:51:13.118Z,66.80
2019-03-22T21:53:39.629Z,62.23
2019-03-22T21:56:06.183Z,73.17
2019-03-22T21:58:32.710Z,65.47
2019-03-22T22:00:59.276Z,72.60
2019-03-22T22:03:25.832Z,67.00
2019-03-22T22:05:52.488Z,69.37
2019-03-22T22:08:19.016Z,70.60
2019-03-22T22:10:45.668Z,70.00
2019-03-22T22:13:12.196Z,69.97
2019-03-22T22:15:38.750Z,72.33
2019-03-22T22:18:05.278Z,75.53
2019-03-22T22:20:31.828Z,75.37
2019-03-22T22:22:58.842Z,74.13
2019-03-22T22:25:25.370Z,78.90
2019-03-22T22:27:52.029Z,72.80
2019-03-22T22:30:18.547Z,74.50
2019-03-22T22:32:45.148Z,77.03
2019-03-22T22:35:13.178Z,75.97
2019-03-22T22:37:39.722Z,77.80
2019-03-22T22:40:10.121Z,73.07
2019-03-22T22:42:36.679Z,80.70
2019-03-22T22:45:05.809Z,82.40
2019-03-22T22:47:32.457Z,80.73
2019-03-22T22:49:59.071Z,78.20
2019-03-22T22:52:25.623Z,76.53
2019-03-22T22:54:52.235Z,79.43
2019-03-22T22:57:18.796Z,78.97
2019-03-22T22:59:45.425Z,82.03
2019-03-22T23:02:12.076Z,74.37
2019-03-22T23:04:40.338Z,81.13
2019-03-22T23:07:06.895Z,77.10
2019-03-22T23:09:35.116Z,77.67
2019-03-22T23:12:01.674Z,76.70
2019-03-22T23:14:28.187Z,79.83
2019-03-22T23:16:54.784Z,79.07
2019-03-22T23:19:21.407Z,75.53
2019-03-22T23:21:47.971Z,78.50
2019-03-22T23:24:14.591Z,76.87
2019-03-22T23:26:41.144Z,81.13
2019-03-22T23:29:07.766Z,79.00
2019-03-22T23:31:34.442Z,78.60
2019-03-22T23:34:00.957Z,76.10
2019-03-22T23:36:27.633Z,75.80
2019-03-22T23:38:54.199Z,80.03
2019-03-22T23:41:20.759Z,80.20
2019-03-22T23:43:47.376Z,82.50
2019-03-22T23:46:13.947Z,75.17
2019-03-22T23:48:40.564Z,76.30
2019-03-22T23:51:07.215Z,79.00
2019-03-22T23:53:33.862Z,82.20
2019-03-22T23:56:00.428Z,73.80
2019-03-22T23:58:28.645Z,85.30
